createdAt,value
2023-02-05T00:00:04.304Z,10.45
2023-02-05T00:01:09.073Z,11.50
2023-02-05T00:02:11.389Z,9.32
2023-02-05T00:03:14.382Z,11.05
2023-02-05T00:04:16.307Z,10.10
2023-02-05T00:05:19.460Z,9.98
2023-02-05T00:06:23.600Z,10.13
2023-02-05T00:07:26.530Z,8.95
2023-02-05T00:08:30.307Z,8.18
2023-02-05T00:09:33.823Z,8.20
2023-02-05T00:10:35.738Z,8.43
2023-02-05T00:11:38.863Z,8.90
2023-02-05T00:12:40.836Z,8.82
2023-02-05T00:13:44.815Z,7.57
2023-02-05T00:14:46.776Z,8.57
2023-02-05T00:15:49.772Z,8.73
2023-02-05T00:16:52.497Z,8.50
2023-02-05T00:17:55.454Z,9.02
2023-02-05T00:18:57.457Z,8.23
2023-02-05T00:20:00.304Z,8.00
2023-02-05T00:21:02.235Z,8.40
2023-02-05T00:22:06.550Z,9.10
2023-02-05T00:23:08.595Z,9.38
2023-02-05T00:24:11.796Z,9.10
2023-02-05T00:25:13.747Z,8.63
2023-02-05T00:26:16.833Z,7.50
2023-02-05T00:27:19.190Z,8.10
2023-02-05T00:28:22.131Z,8.15
2023-02-05T00:29:24.121Z,8.15
2023-02-05T00:30:28.483Z,6.70
2023-02-05T00:31:31.142Z,7.63
2023-02-05T00:32:34.079Z,6.45
2023-02-05T00:33:36.125Z,7.20
2023-02-05T00:34:40.994Z,6.60
2023-02-05T00:35:44.203Z,6.35
2023-02-05T00:36:47.476Z,7.25
2023-02-05T00:37:51.360Z,6.75
2023-02-05T00:38:54.631Z,6.10
2023-02-05T00:39:56.584Z,7.28
2023-02-05T00:40:59.642Z,5.88
2023-02-05T00:42:01.900Z,8.05
2023-02-05T00:43:05.074Z,6.60
2023-02-05T00:44:07.332Z,6.40
2023-02-05T00:45:11.063Z,6.53
2023-02-05T00:46:13.755Z,6.32
2023-02-05T00:47:16.752Z,5.63
2023-02-05T00:48:18.768Z,6.88
2023-02-05T00:49:21.630Z,6.25
2023-02-05T00:50:24.058Z,7.35
2023-02-05T00:51:26.941Z,6.78
2023-02-05T00:52:28.945Z,7.30
2023-02-05T00:53:33.950Z,7.30
2023-02-05T00:54:35.866Z,6.60
2023-02-05T00:55:38.732Z,6.30
2023-02-05T00:56:40.631Z,6.88
2023-02-05T00:57:43.506Z,6.43
2023-02-05T00:58:47.856Z,6.40
2023-02-05T00:59:50.784Z,5.97
2023-02-05T01:00:52.859Z,6.55
2023-02-05T01:01:55.834Z,6.45
2023-02-05T01:02:57.804Z,5.90
2023-02-05T01:04:00.688Z,5.40
2023-02-05T01:05:02.612Z,6.07
2023-02-05T01:06:05.535Z,5.22
2023-02-05T01:07:07.507Z,5.07
2023-02-05T01:08:11.787Z,5.75
2023-02-05T01:09:15.098Z,5.78
2023-02-05T01:10:18.565Z,5.65
2023-02-05T01:11:21.399Z,5.75
2023-02-05T01:12:24.450Z,5.95
2023-02-05T01:13:26.417Z,5.03
2023-02-05T01:14:29.337Z,6.40
2023-02-05T01:15:31.694Z,6.90
2023-02-05T01:16:34.997Z,6.18
2023-02-05T01:17:36.944Z,6.22
2023-02-05T01:18:39.862Z,5.13
2023-02-05T01:19:42.856Z,5.60
2023-02-05T01:20:45.755Z,6.68
2023-02-05T01:21:47.671Z,6.05
2023-02-05T01:22:50.638Z,5.53
2023-02-05T01:23:52.702Z,5.55
2023-02-05T01:24:57.004Z,5.50
2023-02-05T01:25:58.948Z,5.97
2023-02-05T01:27:01.868Z,5.07
2023-02-05T01:28:04.091Z,5.35
2023-02-05T01:29:07.043Z,5.72
2023-02-05T01:30:11.751Z,6.13
2023-02-05T01:31:14.725Z,5.63
2023-02-05T01:32:17.240Z,5.15
2023-02-05T01:33:20.415Z,5.28
2023-02-05T01:34:22.354Z,4.40
2023-02-05T01:35:25.429Z,5.22
2023-02-05T01:36:27.470Z,5.00
2023-02-05T01:37:30.397Z,4.68
2023-02-05T01:38:32.458Z,5.07
2023-02-05T01:39:36.296Z,6.00
2023-02-05T01:40:40.096Z,4.55
2023-02-05T01:41:44.574Z,4.65
2023-02-05T01:42:46.571Z,4.78
2023-02-05T01:44:07.137Z,5.10
2023-02-05T01:45:44.660Z,5.22
2023-02-05T01:46:48.615Z,5.18
2023-02-05T01:47:52.250Z,4.32
2023-02-05T01:48:59.563Z,4.20
2023-02-05T01:50:01.635Z,5.78
2023-02-05T01:51:07.719Z,4.10
2023-02-05T01:52:14.327Z,4.80
2023-02-05T01:53:22.665Z,3.80
2023-02-05T01:54:28.458Z,4.32
2023-02-05T01:55:32.439Z,5.10
2023-02-05T01:56:38.751Z,4.25
2023-02-05T01:57:42.287Z,4.50
2023-02-05T01:58:49.821Z,5.32
2023-02-05T01:59:52.874Z,4.05
2023-02-05T02:00:55.519Z,3.83
2023-02-05T02:02:01.803Z,4.82
2023-02-05T02:03:05.141Z,5.07
2023-02-05T02:04:08.489Z,4.47
2023-02-05T02:05:13.323Z,5.10
2023-02-05T02:06:16.469Z,4.43
2023-02-05T02:07:21.525Z,4.90
2023-02-05T02:08:24.570Z,4.70
2023-02-05T02:09:26.555Z,5.38
2023-02-05T02:10:29.644Z,4.75
2023-02-05T02:11:36.520Z,4.35
2023-02-05T02:12:44.458Z,5.10
2023-02-05T02:13:49.868Z,5.13
2023-02-05T02:15:00.519Z,5.53
2023-02-05T02:16:04.822Z,4.40
2023-02-05T02:17:09.144Z,4.07
2023-02-05T02:18:28.799Z,4.50
2023-02-05T02:19:38.094Z,4.20
2023-02-05T02:20:43.374Z,4.30
2023-02-05T02:22:27.066Z,4.47
2023-02-05T02:23:41.252Z,4.00
2023-02-05T02:24:56.800Z,4.22
2023-02-05T02:26:27.930Z,4.30
2023-02-05T02:27:42.542Z,3.90
2023-02-05T02:28:49.606Z,3.67
2023-02-05T02:29:57.550Z,6.32
2023-02-05T02:31:05.737Z,5.60
2023-02-05T02:32:16.104Z,4.30
2023-02-05T02:33:26.469Z,5.32
2023-02-05T02:34:33.971Z,4.75
2023-02-05T02:35:45.810Z,5.03
2023-02-05T02:36:56.702Z,4.07
2023-02-05T02:38:06.326Z,4.78
2023-02-05T02:39:13.097Z,5.45
2023-02-05T02:40:22.289Z,4.97
2023-02-05T02:41:28.804Z,4.10
2023-02-05T02:42:36.522Z,4.97
2023-02-05T02:43:48.920Z,4.57
2023-02-05T02:44:56.284Z,3.97
2023-02-05T02:46:02.469Z,4.78
2023-02-05T02:47:12.209Z,4.30
2023-02-05T02:48:19.069Z,4.18
2023-02-05T02:49:26.466Z,4.25
2023-02-05T02:50:34.731Z,4.20
2023-02-05T02:51:39.681Z,4.00
2023-02-05T02:52:47.382Z,4.65
2023-02-05T02:53:56.469Z,4.30
2023-02-05T02:55:05.480Z,4.05
2023-02-05T02:56:12.200Z,4.15
2023-02-05T02:57:18.732Z,4.43
2023-02-05T02:58:25.510Z,3.50
2023-02-05T02:59:35.281Z,4.90
2023-02-05T03:00:42.533Z,4.78
2023-02-05T03:01:53.734Z,4.00
2023-02-05T03:03:02.122Z,4.32
2023-02-05T03:04:08.938Z,4.25
2023-02-05T03:05:15.753Z,4.32
2023-02-05T03:06:19.302Z,4.15
2023-02-05T03:07:27.699Z,3.78
2023-02-05T03:08:37.625Z,4.35
2023-02-05T03:09:48.180Z,3.65
2023-02-05T03:10:59.230Z,3.80
2023-02-05T03:12:02.275Z,3.45
2023-02-05T03:13:04.262Z,4.40
2023-02-05T03:14:07.175Z,4.80
2023-02-05T03:15:14.106Z,4.20
2023-02-05T03:16:20.866Z,3.97
2023-02-05T03:17:24.630Z,4.25
2023-02-05T03:18:27.570Z,4.00
2023-02-05T03:19:30.273Z,3.95
2023-02-05T03:20:40.536Z,3.90
2023-02-05T03:21:46.614Z,4.18
2023-02-05T03:22:49.975Z,4.20
2023-02-05T03:23:52.123Z,4.18
2023-02-05T03:24:55.442Z,4.40
2023-02-05T03:25:57.337Z,4.82
2023-02-05T03:27:09.794Z,4.32
2023-02-05T03:28:13.715Z,4.45
2023-02-05T03:29:27.591Z,4.20
2023-02-05T03:30:43.908Z,3.85
2023-02-05T03:32:08.384Z,4.25
2023-02-05T03:33:22.931Z,3.72
2023-02-05T03:34:38.726Z,3.80
2023-02-05T03:35:47.087Z,3.90
2023-02-05T03:37:00.718Z,4.55
2023-02-05T03:38:21.699Z,3.30
2023-02-05T03:39:37.623Z,3.45
2023-02-05T03:40:47.440Z,4.68
2023-02-05T03:42:00.149Z,3.88
2023-02-05T03:43:14.794Z,3.10
2023-02-05T03:44:27.741Z,3.65
2023-02-05T03:45:42.664Z,3.47
2023-02-05T03:46:53.380Z,5.00
2023-02-05T03:48:13.616Z,3.60
2023-02-05T03:49:23.518Z,3.45
2023-02-05T03:50:32.784Z,4.07
2023-02-05T03:51:41.240Z,4.07
2023-02-05T03:52:50.761Z,4.57
2023-02-05T03:54:04.522Z,3.13
2023-02-05T03:55:11.150Z,4.10
2023-02-05T03:56:21.894Z,3.30
2023-02-05T03:57:27.976Z,3.75
2023-02-05T03:58:37.977Z,3.55
2023-02-05T03:59:43.629Z,3.67
2023-02-05T04:00:49.446Z,3.42
2023-02-05T04:01:52.684Z,3.78
2023-02-05T04:02:56.417Z,3.75
2023-02-05T04:04:03.170Z,3.75
2023-02-05T04:05:06.849Z,3.38
2023-02-05T04:06:08.795Z,4.15
2023-02-05T04:07:12.973Z,3.72
2023-02-05T04:08:15.767Z,3.72
2023-02-05T04:09:23.802Z,3.53
2023-02-05T04:10:26.295Z,3.05
2023-02-05T04:11:29.506Z,4.20
2023-02-05T04:12:33.282Z,3.22
2023-02-05T04:13:36.228Z,3.67
2023-02-05T04:14:39.446Z,4.38
2023-02-05T04:15:42.408Z,3.35
2023-02-05T04:16:47.674Z,3.60
2023-02-05T04:17:50.657Z,4.03
2023-02-05T04:18:53.058Z,3.80
2023-02-05T04:19:56.515Z,4.15
2023-02-05T04:20:59.936Z,4.53
2023-02-05T04:22:04.905Z,4.18
2023-02-05T04:23:10.212Z,3.63
2023-02-05T04:24:14.154Z,4.40
2023-02-05T04:25:16.395Z,3.15
2023-02-05T04:26:20.011Z,4.65
2023-02-05T04:27:33.393Z,3.70
2023-02-05T04:28:38.297Z,3.72
2023-02-05T04:29:41.812Z,4.13
2023-02-05T04:30:44.788Z,3.72
2023-02-05T04:31:48.133Z,4.30
2023-02-05T04:32:51.162Z,3.85
2023-02-05T04:33:53.586Z,3.80
2023-02-05T04:34:57.388Z,3.15
2023-02-05T04:36:00.798Z,3.63
2023-02-05T04:37:03.981Z,3.78
2023-02-05T04:38:06.329Z,4.18
2023-02-05T04:39:09.282Z,3.70
2023-02-05T04:40:11.777Z,4.18
2023-02-05T04:41:14.807Z,3.45
2023-02-05T04:42:16.829Z,4.00
2023-02-05T04:43:19.744Z,3.53
2023-02-05T04:44:21.852Z,3.40
2023-02-05T04:45:26.869Z,3.35
2023-02-05T04:46:28.958Z,3.80
2023-02-05T04:47:35.166Z,3.83
2023-02-05T04:48:37.856Z,3.70
2023-02-05T04:49:41.421Z,3.72
2023-02-05T04:50:43.822Z,4.00
2023-02-05T04:51:46.782Z,3.63
2023-02-05T04:52:48.654Z,3.92
2023-02-05T04:53:51.554Z,3.67
2023-02-05T04:54:53.495Z,3.88
2023-02-05T04:56:05.935Z,3.10
2023-02-05T04:57:07.816Z,3.40
2023-02-05T04:58:10.751Z,3.47
2023-02-05T04:59:13.291Z,3.88
2023-02-05T05:00:16.951Z,4.43
2023-02-05T05:01:20.676Z,3.83
2023-02-05T05:02:24.480Z,3.10
2023-02-05T05:03:27.852Z,3.90
2023-02-05T05:04:30.714Z,3.95
2023-02-05T05:05:35.180Z,3.20
2023-02-05T05:06:38.226Z,3.78
2023-02-05T05:07:40.186Z,3.80
2023-02-05T05:08:43.209Z,3.80
2023-02-05T05:09:45.165Z,3.53
2023-02-05T05:10:48.303Z,3.00
2023-02-05T05:11:50.482Z,4.15
2023-02-05T05:12:54.102Z,3.78
2023-02-05T05:13:56.004Z,3.20
2023-02-05T05:14:58.913Z,3.60
2023-02-05T05:16:01.071Z,3.88
2023-02-05T05:17:04.049Z,3.65
2023-02-05T05:18:06.093Z,4.20
2023-02-05T05:19:11.162Z,3.47
2023-02-05T05:20:13.578Z,4.20
2023-02-05T05:21:16.503Z,4.00
2023-02-05T05:22:18.434Z,4.53
2023-02-05T05:23:21.397Z,3.80
2023-02-05T05:24:23.326Z,4.78
2023-02-05T05:25:26.242Z,3.88
2023-02-05T05:26:28.382Z,4.45
2023-02-05T05:27:32.787Z,3.40
2023-02-05T05:28:35.382Z,4.28
2023-02-05T05:29:38.832Z,3.50
2023-02-05T05:30:42.598Z,3.75
2023-02-05T05:31:45.684Z,3.38
2023-02-05T05:32:47.682Z,3.83
2023-02-05T05:33:51.056Z,3.22
2023-02-05T05:34:54.337Z,4.50
2023-02-05T05:35:57.272Z,3.58
2023-02-05T05:36:59.379Z,3.85
2023-02-05T05:38:02.434Z,3.20
2023-02-05T05:39:19.333Z,3.65
2023-02-05T05:40:39.648Z,3.72
2023-02-05T05:42:00.310Z,3.38
2023-02-05T05:43:23.072Z,3.17
2023-02-05T05:44:26.015Z,2.72
2023-02-05T05:45:27.969Z,3.22
2023-02-05T05:46:30.960Z,3.15
2023-02-05T05:47:33.129Z,3.10
2023-02-05T05:48:36.488Z,3.65
2023-02-05T05:49:38.586Z,3.60
2023-02-05T05:50:42.960Z,3.30
2023-02-05T05:51:44.945Z,3.67
2023-02-05T05:52:47.846Z,3.42
2023-02-05T05:53:49.850Z,3.72
2023-02-05T05:54:52.827Z,3.38
2023-02-05T05:55:54.852Z,3.65
2023-02-05T05:56:57.805Z,3.10
2023-02-05T05:57:59.828Z,3.60
2023-02-05T05:59:02.886Z,3.38
2023-02-05T06:00:05.900Z,3.90
2023-02-05T06:01:16.835Z,3.35
2023-02-05T06:02:18.939Z,3.25
2023-02-05T06:03:22.282Z,3.05
2023-02-05T06:04:24.337Z,3.83
2023-02-05T06:05:27.384Z,3.67
2023-02-05T06:06:30.806Z,3.22
2023-02-05T06:07:33.846Z,3.15
2023-02-05T06:08:35.922Z,3.42
2023-02-05T06:09:38.907Z,3.60
2023-02-05T06:10:40.940Z,3.45
2023-02-05T06:11:43.846Z,3.38
2023-02-05T06:12:46.046Z,3.30
2023-02-05T06:13:49.491Z,3.30
2023-02-05T06:14:51.492Z,3.35
2023-02-05T06:15:55.230Z,3.65
2023-02-05T06:16:57.191Z,3.80
2023-02-05T06:18:00.217Z,3.85
2023-02-05T06:19:02.175Z,4.18
2023-02-05T06:20:05.501Z,3.90
2023-02-05T06:21:07.498Z,3.65
2023-02-05T06:22:11.796Z,3.33
2023-02-05T06:23:13.959Z,3.38
2023-02-05T06:24:17.024Z,3.58
2023-02-05T06:25:19.139Z,2.85
2023-02-05T06:26:22.087Z,3.80
2023-02-05T06:27:24.196Z,3.50
2023-02-05T06:28:27.135Z,3.42
2023-02-05T06:29:29.083Z,3.13
2023-02-05T06:30:32.118Z,4.10
2023-02-05T06:31:34.137Z,3.40
2023-02-05T06:32:37.272Z,3.17
2023-02-05T06:33:39.217Z,3.30
2023-02-05T06:34:42.353Z,3.60
2023-02-05T06:35:44.285Z,3.55
2023-02-05T06:36:47.274Z,3.40
2023-02-05T06:37:50.632Z,3.95
2023-02-05T06:38:53.570Z,3.30
2023-02-05T06:39:55.734Z,3.13
2023-02-05T06:40:58.694Z,3.05
2023-02-05T06:42:00.832Z,3.50
2023-02-05T06:43:04.014Z,3.88
2023-02-05T06:44:06.005Z,4.10
2023-02-05T06:45:10.207Z,3.35
2023-02-05T06:46:12.199Z,3.75
2023-02-05T06:47:15.364Z,2.75
2023-02-05T06:48:18.210Z,2.90
2023-02-05T06:49:21.542Z,3.50
2023-02-05T06:50:24.168Z,3.42
2023-02-05T06:51:27.092Z,3.22
2023-02-05T06:52:29.003Z,3.60
2023-02-05T06:53:33.365Z,2.85
2023-02-05T06:54:35.337Z,3.72
2023-02-05T06:55:39.931Z,3.03
2023-02-05T06:56:41.907Z,3.60
2023-02-05T06:57:44.857Z,3.55
2023-02-05T06:58:46.869Z,3.50
2023-02-05T06:59:49.824Z,4.07
2023-02-05T07:00:53.164Z,3.25
2023-02-05T07:01:56.165Z,3.28
2023-02-05T07:02:58.135Z,2.95
2023-02-05T07:04:01.238Z,3.50
2023-02-05T07:05:03.393Z,3.17
2023-02-05T07:06:07.421Z,3.17
2023-02-05T07:07:09.421Z,3.65
2023-02-05T07:08:12.426Z,3.30
2023-02-05T07:09:15.738Z,4.20
2023-02-05T07:10:18.814Z,4.05
2023-02-05T07:11:21.507Z,3.28
2023-02-05T07:12:24.428Z,3.80
2023-02-05T07:13:26.447Z,3.92
2023-02-05T07:14:31.481Z,3.72
2023-02-05T07:15:35.987Z,3.40
2023-02-05T07:16:39.127Z,3.60
2023-02-05T07:17:41.055Z,4.03
2023-02-05T07:18:43.989Z,3.13
2023-02-05T07:19:46.017Z,3.10
2023-02-05T07:20:49.277Z,3.85
2023-02-05T07:21:51.297Z,3.50
2023-02-05T07:22:54.262Z,3.33
2023-02-05T07:23:56.381Z,3.30
2023-02-05T07:25:02.141Z,3.17
2023-02-05T07:26:10.899Z,3.25
2023-02-05T07:27:12.849Z,3.42
2023-02-05T07:28:16.156Z,3.80
2023-02-05T07:29:18.244Z,3.55
2023-02-05T07:30:21.409Z,4.05
2023-02-05T07:31:23.487Z,4.55
2023-02-05T07:32:26.472Z,3.60
2023-02-05T07:33:28.401Z,3.60
2023-02-05T07:34:31.371Z,4.47
2023-02-05T07:35:36.667Z,4.10
2023-02-05T07:36:39.781Z,3.65
2023-02-05T07:37:41.740Z,4.20
2023-02-05T07:38:45.341Z,4.00
2023-02-05T07:39:47.206Z,4.20
2023-02-05T07:40:52.731Z,3.55
2023-02-05T07:41:54.681Z,3.80
2023-02-05T07:43:04.649Z,4.13
2023-02-05T07:44:06.602Z,4.00
2023-02-05T07:45:10.464Z,3.55
2023-02-05T07:46:13.931Z,3.70
2023-02-05T07:47:16.836Z,4.30
2023-02-05T07:48:18.738Z,4.10
2023-02-05T07:49:22.057Z,3.33
2023-02-05T07:50:23.979Z,3.63
2023-02-05T07:51:27.521Z,3.55
2023-02-05T07:52:29.562Z,3.50
2023-02-05T07:53:32.927Z,4.28
2023-02-05T07:54:35.439Z,3.70
2023-02-05T07:55:38.434Z,3.65
2023-02-05T07:56:42.032Z,4.50
2023-02-05T07:57:46.872Z,4.55
2023-02-05T07:58:49.348Z,3.10
2023-02-05T07:59:52.301Z,3.42
2023-02-05T08:00:55.277Z,3.95
2023-02-05T08:01:57.254Z,3.70
2023-02-05T08:03:00.129Z,3.83
2023-02-05T08:04:02.150Z,4.38
2023-02-05T08:05:05.508Z,4.25
2023-02-05T08:06:08.729Z,4.20
2023-02-05T08:07:13.602Z,3.75
2023-02-05T08:08:15.602Z,3.65
2023-02-05T08:09:18.579Z,2.90
2023-02-05T08:10:21.783Z,4.22
2023-02-05T08:11:23.708Z,4.53
2023-02-05T08:12:28.022Z,3.28
2023-02-05T08:13:30.013Z,3.00
2023-02-05T08:14:33.036Z,3.55
2023-02-05T08:15:35.246Z,3.65
2023-02-05T08:16:38.881Z,3.33
2023-02-05T08:17:41.106Z,4.40
2023-02-05T08:18:44.462Z,3.85
2023-02-05T08:19:47.401Z,3.60
2023-02-05T08:20:53.446Z,3.70
2023-02-05T08:21:56.399Z,4.85
2023-02-05T08:22:58.378Z,3.25
2023-02-05T08:24:02.030Z,4.95
2023-02-05T08:25:06.029Z,4.10
2023-02-05T08:26:09.008Z,3.72
2023-02-05T08:27:10.966Z,3.58
2023-02-05T08:28:15.440Z,3.42
2023-02-05T08:29:17.533Z,3.95
2023-02-05T08:30:21.801Z,4.53
2023-02-05T08:31:23.815Z,3.22
2023-02-05T08:32:26.898Z,3.72
2023-02-05T08:33:28.923Z,4.72
2023-02-05T08:34:31.894Z,4.45
2023-02-05T08:35:34.000Z,4.60
2023-02-05T08:36:37.054Z,4.80
2023-02-05T08:37:39.087Z,4.03
2023-02-05T08:38:42.035Z,4.25
2023-02-05T08:39:44.159Z,4.22
2023-02-05T08:40:47.098Z,3.90
2023-02-05T08:41:49.956Z,3.78
2023-02-05T08:42:56.717Z,3.90
2023-02-05T08:44:01.055Z,3.95
2023-02-05T08:45:03.509Z,4.55
2023-02-05T08:46:06.812Z,3.80
2023-02-05T08:47:08.831Z,5.10
2023-02-05T08:48:11.776Z,4.88
2023-02-05T08:49:13.740Z,4.03
2023-02-05T08:50:16.959Z,3.90
2023-02-05T08:51:20.335Z,5.50
2023-02-05T08:52:23.276Z,4.80
2023-02-05T08:53:25.423Z,4.40
2023-02-05T08:54:28.411Z,3.90
2023-02-05T08:55:30.481Z,4.30
2023-02-05T08:56:33.439Z,4.47
2023-02-05T08:57:35.474Z,4.00
2023-02-05T08:58:38.713Z,4.05
2023-02-05T08:59:42.139Z,3.80
2023-02-05T09:00:45.313Z,6.10
2023-02-05T09:01:48.069Z,4.03
2023-02-05T09:02:51.009Z,3.20
2023-02-05T09:03:53.977Z,5.00
2023-02-05T09:05:07.678Z,4.43
2023-02-05T09:06:13.476Z,5.80
2023-02-05T09:07:15.538Z,4.05
2023-02-05T09:08:18.466Z,4.90
2023-02-05T09:09:20.655Z,4.80
2023-02-05T09:10:23.628Z,4.18
2023-02-05T09:11:26.818Z,4.68
2023-02-05T09:12:29.770Z,3.97
2023-02-05T09:13:33.089Z,4.15
2023-02-05T09:14:36.433Z,3.47
2023-02-05T09:15:44.404Z,3.90
2023-02-05T09:16:47.316Z,4.03
2023-02-05T09:17:49.356Z,4.35
2023-02-05T09:18:52.503Z,4.32
2023-02-05T09:19:54.902Z,4.35
2023-02-05T09:20:57.977Z,4.10
2023-02-05T09:21:59.962Z,3.90
2023-02-05T09:23:03.568Z,3.33
2023-02-05T09:24:06.838Z,4.40
2023-02-05T09:25:10.289Z,4.07
2023-02-05T09:26:12.228Z,3.95
2023-02-05T09:27:15.139Z,4.50
2023-02-05T09:28:17.229Z,4.75
2023-02-05T09:29:20.281Z,4.68
2023-02-05T09:30:22.206Z,5.03
2023-02-05T09:31:26.627Z,4.50
2023-02-05T09:32:28.752Z,5.00
2023-02-05T09:33:31.691Z,5.07
2023-02-05T09:34:34.605Z,4.60
2023-02-05T09:35:36.868Z,5.20
2023-02-05T09:36:41.250Z,5.03
2023-02-05T09:37:44.071Z,5.00
2023-02-05T09:38:47.458Z,4.22
2023-02-05T09:40:19.475Z,5.13
2023-02-05T09:41:20.936Z,4.97
2023-02-05T09:42:33.563Z,4.97
2023-02-05T09:43:48.670Z,4.88
2023-02-05T09:45:03.487Z,5.53
2023-02-05T09:46:11.331Z,6.15
2023-02-05T09:47:24.928Z,4.80
2023-02-05T09:48:49.582Z,4.68
2023-02-05T09:50:01.531Z,5.32
2023-02-05T09:51:04.789Z,9.15
2023-02-05T09:52:15.659Z,8.65
2023-02-05T09:53:22.821Z,6.53
2023-02-05T09:54:29.752Z,5.85
2023-02-05T09:55:36.262Z,5.93
2023-02-05T09:56:40.043Z,5.90
2023-02-05T09:57:44.606Z,5.80
2023-02-05T09:58:50.526Z,4.70
2023-02-05T09:59:53.377Z,4.97
2023-02-05T10:01:01.094Z,5.90
2023-02-05T10:02:24.168Z,5.57
2023-02-05T10:03:33.209Z,9.82
2023-02-05T10:04:36.328Z,6.25
2023-02-05T10:05:46.286Z,10.05
2023-02-05T10:07:18.892Z,5.70
2023-02-05T10:08:36.275Z,5.93
2023-02-05T10:10:15.991Z,5.90
2023-02-05T10:11:30.009Z,4.85
2023-02-05T10:12:45.088Z,5.50
2023-02-05T10:14:05.202Z,5.82
2023-02-05T10:15:24.995Z,5.25
2023-02-05T10:17:09.338Z,5.68
2023-02-05T10:18:25.582Z,5.43
2023-02-05T10:19:46.419Z,4.95
2023-02-05T10:20:58.936Z,5.93
2023-02-05T10:22:13.554Z,5.97
2023-02-05T10:23:17.646Z,4.80
2023-02-05T10:24:45.224Z,5.22
2023-02-05T10:26:00.832Z,4.95
2023-02-05T10:27:15.664Z,4.45
2023-02-05T10:28:33.267Z,4.47
2023-02-05T10:29:46.378Z,4.63
2023-02-05T10:30:54.858Z,5.15
2023-02-05T10:32:18.859Z,5.50
2023-02-05T10:33:37.104Z,5.63
2023-02-05T10:34:49.071Z,4.70
2023-02-05T10:36:00.219Z,4.63
2023-02-05T10:37:05.585Z,5.00
2023-02-05T10:38:24.137Z,4.30
2023-02-05T10:39:30.045Z,4.20
2023-02-05T10:40:39.286Z,4.35
2023-02-05T10:41:48.054Z,4.47
2023-02-05T10:42:55.067Z,4.30
2023-02-05T10:44:06.009Z,3.72
2023-02-05T10:45:16.382Z,5.28
2023-02-05T10:46:20.256Z,3.63
2023-02-05T10:47:39.499Z,3.58
2023-02-05T10:48:46.812Z,3.92
2023-02-05T10:49:52.037Z,4.95
2023-02-05T10:50:59.586Z,4.47
2023-02-05T10:52:02.592Z,3.83
2023-02-05T10:53:04.543Z,3.92
2023-02-05T10:54:20.154Z,4.18
2023-02-05T10:55:22.293Z,3.17
2023-02-05T10:56:25.257Z,3.22
2023-02-05T10:57:34.802Z,3.38
2023-02-05T10:58:44.260Z,4.10
2023-02-05T10:59:54.653Z,3.40
2023-02-05T11:00:56.643Z,3.35
2023-02-05T11:02:04.270Z,3.97
2023-02-05T11:03:06.589Z,4.03
2023-02-05T11:04:16.189Z,5.65
2023-02-05T11:05:27.775Z,4.40
2023-02-05T11:06:37.324Z,4.10
2023-02-05T11:07:43.688Z,3.92
2023-02-05T11:08:47.169Z,4.22
2023-02-05T11:09:50.039Z,3.20
2023-02-05T11:10:53.516Z,3.90
2023-02-05T11:11:58.189Z,3.03
2023-02-05T11:13:07.193Z,3.60
2023-02-05T11:14:25.052Z,3.05
2023-02-05T11:15:29.698Z,4.07
2023-02-05T11:16:39.759Z,5.45
2023-02-05T11:17:41.939Z,4.20
2023-02-05T11:18:47.548Z,3.75
2023-02-05T11:19:56.628Z,3.47
2023-02-05T11:21:01.276Z,3.25
2023-02-05T11:22:06.190Z,3.03
2023-02-05T11:23:17.943Z,3.05
2023-02-05T11:24:27.038Z,4.07
2023-02-05T11:25:31.496Z,3.92
2023-02-05T11:26:34.528Z,6.03
2023-02-05T11:27:39.267Z,4.35
2023-02-05T11:28:42.173Z,3.42
2023-02-05T11:29:44.315Z,2.83
2023-02-05T11:30:51.047Z,2.95
2023-02-05T11:31:54.288Z,3.15
2023-02-05T11:32:57.628Z,3.45
2023-02-05T11:34:13.004Z,2.95
2023-02-05T11:35:24.000Z,3.33
2023-02-05T11:36:26.950Z,4.03
2023-02-05T11:37:28.876Z,3.13
2023-02-05T11:38:37.082Z,2.90
2023-02-05T11:39:40.870Z,2.80
2023-02-05T11:40:52.850Z,3.28
2023-02-05T11:41:56.710Z,3.55
2023-02-05T11:43:06.206Z,3.63
2023-02-05T11:44:19.027Z,3.63
2023-02-05T11:45:22.634Z,3.97
2023-02-05T11:46:28.136Z,3.40
2023-02-05T11:47:32.745Z,4.07
2023-02-05T11:48:41.851Z,3.65
2023-02-05T11:49:43.870Z,3.30
2023-02-05T11:50:48.248Z,2.85
2023-02-05T11:51:55.453Z,3.20
2023-02-05T11:53:09.380Z,3.17
2023-02-05T11:54:26.105Z,3.28
2023-02-05T11:55:31.823Z,3.20
2023-02-05T11:56:34.881Z,3.55
2023-02-05T11:57:41.700Z,3.25
2023-02-05T11:58:47.014Z,3.42
2023-02-05T11:59:56.187Z,2.85
2023-02-05T12:01:02.066Z,4.00
2023-02-05T12:02:29.827Z,3.63
2023-02-05T12:03:33.939Z,2.85
2023-02-05T12:04:45.291Z,3.63
2023-02-05T12:05:54.366Z,3.22
2023-02-05T12:07:01.747Z,3.40
2023-02-05T12:08:12.203Z,3.47
2023-02-05T12:09:21.490Z,3.85
2023-02-05T12:10:33.468Z,3.95
2023-02-05T12:12:11.345Z,3.25
2023-02-05T12:13:23.113Z,3.58
2023-02-05T12:14:37.915Z,3.65
2023-02-05T12:15:47.383Z,3.30
2023-02-05T12:17:01.269Z,3.47
2023-02-05T12:18:18.820Z,3.90
2023-02-05T12:19:25.249Z,3.33
2023-02-05T12:20:34.067Z,3.90
2023-02-05T12:21:47.254Z,3.60
2023-02-05T12:23:14.449Z,3.92
2023-02-05T12:24:52.916Z,3.08
2023-02-05T12:26:13.157Z,3.30
2023-02-05T12:27:27.096Z,3.90
2023-02-05T12:28:40.421Z,3.92
2023-02-05T12:29:57.956Z,4.10
2023-02-05T12:31:13.286Z,3.20
2023-02-05T12:32:29.653Z,3.85
2023-02-05T12:33:45.095Z,4.28
2023-02-05T12:35:07.437Z,3.65
2023-02-05T12:36:26.787Z,3.95
2023-02-05T12:37:40.814Z,3.70
2023-02-05T12:38:52.980Z,3.53
2023-02-05T12:40:04.378Z,3.97
2023-02-05T12:41:20.563Z,3.60
2023-02-05T12:42:32.214Z,3.60
2023-02-05T12:43:38.506Z,3.85
2023-02-05T12:45:05.740Z,3.50
2023-02-05T12:46:29.321Z,2.95
2023-02-05T12:47:48.701Z,3.58
2023-02-05T12:49:09.354Z,3.25
2023-02-05T12:50:27.828Z,3.72
2023-02-05T12:51:55.494Z,3.45
2023-02-05T12:53:10.447Z,3.92
2023-02-05T12:54:32.092Z,3.40
2023-02-05T12:55:49.176Z,3.50
2023-02-05T12:57:00.127Z,3.75
2023-02-05T12:58:06.707Z,4.07
2023-02-05T12:59:16.231Z,3.53
2023-02-05T13:00:23.959Z,4.45
2023-02-05T13:01:34.148Z,4.00
2023-02-05T13:02:44.463Z,3.85
2023-02-05T13:03:53.055Z,3.28
2023-02-05T13:05:10.031Z,2.85
2023-02-05T13:06:16.399Z,2.90
2023-02-05T13:07:31.683Z,3.40
2023-02-05T13:08:43.280Z,3.35
2023-02-05T13:09:49.495Z,3.38
2023-02-05T13:10:57.432Z,3.13
2023-02-05T13:12:05.077Z,3.00
2023-02-05T13:13:14.938Z,3.10
2023-02-05T13:14:21.893Z,3.25
2023-02-05T13:15:28.750Z,4.00
2023-02-05T13:16:38.494Z,4.13
2023-02-05T13:17:51.312Z,4.43
2023-02-05T13:18:57.957Z,2.80
2023-02-05T13:20:04.174Z,4.22
2023-02-05T13:21:27.126Z,3.45
2023-02-05T13:22:50.843Z,4.20
2023-02-05T13:24:21.381Z,3.95
2023-02-05T13:25:46.769Z,3.60
2023-02-05T13:27:07.455Z,3.60
2023-02-05T13:28:43.092Z,3.65
2023-02-05T13:29:51.754Z,3.33
2023-02-05T13:30:56.063Z,3.83
2023-02-05T13:32:14.697Z,3.50
2023-02-05T13:33:18.348Z,5.35
2023-02-05T13:34:21.726Z,4.57
2023-02-05T13:35:26.363Z,3.20
2023-02-05T13:37:04.484Z,3.65
2023-02-05T13:38:32.316Z,3.03
2023-02-05T13:39:59.237Z,3.75
2023-02-05T13:41:35.670Z,2.90
2023-02-05T13:42:58.967Z,4.03
2023-02-05T13:44:32.654Z,3.55
2023-02-05T13:46:01.479Z,3.35
2023-02-05T13:47:27.424Z,3.47
2023-02-05T13:48:51.594Z,4.15
2023-02-05T13:50:28.107Z,4.05
2023-02-05T13:51:58.528Z,4.20
2023-02-05T13:53:15.967Z,3.63
2023-02-05T13:55:02.070Z,4.70
2023-02-05T13:56:31.742Z,3.80
2023-02-05T13:58:13.486Z,4.15
2023-02-05T13:59:23.646Z,6.13
2023-02-05T14:00:27.821Z,13.05
2023-02-05T14:01:34.829Z,7.15
2023-02-05T14:02:43.034Z,4.65
2023-02-05T14:03:56.980Z,3.92
2023-02-05T14:05:00.735Z,3.55
2023-02-05T14:06:15.923Z,4.07
2023-02-05T14:07:23.179Z,2.97
2023-02-05T14:08:28.823Z,4.20
2023-02-05T14:09:36.391Z,3.35
2023-02-05T14:10:43.386Z,3.60
2023-02-05T14:11:55.721Z,3.58
2023-02-05T14:13:19.722Z,3.42
2023-02-05T14:14:25.965Z,4.30
2023-02-05T14:15:40.530Z,3.20
2023-02-05T14:16:42.772Z,4.40
2023-02-05T14:17:56.449Z,3.00
2023-02-05T14:19:15.345Z,4.25
2023-02-05T14:20:39.115Z,3.33
2023-02-05T14:22:13.825Z,3.65
2023-02-05T14:23:38.417Z,3.95
2023-02-05T14:24:49.487Z,3.17
2023-02-05T14:26:11.454Z,3.72
2023-02-05T14:27:42.234Z,3.55
2023-02-05T14:28:55.031Z,3.78
2023-02-05T14:30:17.822Z,5.50
2023-02-05T14:31:46.778Z,3.15
2023-02-05T14:33:00.900Z,3.10
2023-02-05T14:34:51.884Z,3.47
2023-02-05T14:35:55.999Z,2.90
2023-02-05T14:36:59.263Z,2.70
2023-02-05T14:38:03.368Z,3.65
2023-02-05T14:39:20.063Z,3.45
2023-02-05T14:40:32.380Z,3.60
2023-02-05T14:41:50.722Z,3.90
2023-02-05T14:43:08.431Z,3.22
2023-02-05T14:44:19.854Z,3.38
2023-02-05T14:45:27.269Z,3.78
2023-02-05T14:46:33.030Z,3.15
2023-02-05T14:47:35.995Z,3.63
2023-02-05T14:48:47.932Z,3.88
2023-02-05T14:49:50.990Z,3.67
2023-02-05T14:51:06.372Z,3.97
2023-02-05T14:52:24.157Z,3.85
2023-02-05T14:53:29.625Z,4.38
2023-02-05T14:54:36.318Z,4.07
2023-02-05T14:55:43.856Z,4.10